Time;durP1;ratioP1;P1;durP2;ratioP2;P2;SDS_P1;SDS_P2;PMS_P1;PMS_P2;Temp;Humidity;BMP_temperature;BMP_pressure;BME280_temperature;BME280_humidity;BME280_pressure;Samples;Min_cycle;Max_cycle;Signal;HPM_P1;HPM_P2
2023/10/31 00:01:37;;;;;;;4.75;2.92;;;11.00;99.90;;;;;;4995809;28;20130;-87
2023/10/31 00:04:03;;;;;;;4.32;2.72;;;11.00;99.90;;;;;;5000604;28;21336;-87
2023/10/31 00:06:28;;;;;;;2.75;2.55;;;11.00;99.90;;;;;;4994430;28;20010;-86
2023/10/31 00:08:54;;;;;;;4.00;3.60;;;11.00;99.90;;;;;;4990790;28;20038;-87
2023/10/31 00:11:19;;;;;;;3.72;3.22;;;10.90;99.90;;;;;;4989007;28;20018;-87
2023/10/31 00:13:45;;;;;;;4.85;3.95;;;11.00;99.90;;;;;;4988229;28;20026;-86
2023/10/31 00:16:10;;;;;;;3.75;3.28;;;11.00;99.90;;;;;;5000304;28;20509;-86
2023/10/31 00:18:36;;;;;;;5.10;3.67;;;10.90;99.90;;;;;;4987180;28;20018;-88
2023/10/31 00:21:02;;;;;;;3.92;3.25;;;11.00;99.90;;;;;;4991995;28;20015;-86
2023/10/31 00:23:27;;;;;;;5.07;3.10;;;11.00;99.90;;;;;;4981676;28;20042;-86
2023/10/31 00:25:53;;;;;;;4.35;3.60;;;11.00;99.90;;;;;;4992100;28;20032;-86
2023/10/31 00:28:19;;;;;;;4.70;3.25;;;11.00;99.90;;;;;;4983739;28;20125;-86
2023/10/31 00:30:44;;;;;;;4.25;3.42;;;11.00;99.90;;;;;;4990101;28;20031;-86
2023/10/31 00:33:10;;;;;;;4.47;3.58;;;11.00;99.90;;;;;;4986045;28;20034;-86
2023/10/31 00:35:35;;;;;;;4.53;3.08;;;11.00;99.90;;;;;;4988020;28;20034;-86
2023/10/31 00:38:01;;;;;;;4.10;3.40;;;11.00;99.90;;;;;;4989395;28;20105;-86
2023/10/31 00:40:27;;;;;;;6.65;3.08;;;11.00;99.90;;;;;;4984556;28;20044;-86
2023/10/31 00:42:53;;;;;;;3.88;2.95;;;11.00;99.90;;;;;;4992580;28;20031;-86
2023/10/31 00:45:19;;;;;;;4.43;3.15;;;11.00;99.90;;;;;;4989655;28;20019;-86
2023/10/31 00:47:44;;;;;;;5.28;3.60;;;11.00;99.90;;;;;;4992541;28;20026;-86
2023/10/31 00:50:10;;;;;;;6.80;3.67;;;11.00;99.90;;;;;;4985667;28;20033;-86
2023/10/31 00:52:36;;;;;;;3.38;3.08;;;11.00;99.90;;;;;;4990699;28;20203;-86
2023/10/31 00:55:01;;;;;;;5.07;3.30;;;11.00;99.90;;;;;;4985457;28;20022;-86
2023/10/31 00:57:27;;;;;;;6.18;3.47;;;11.00;99.90;;;;;;4983962;28;20022;-86
2023/10/31 00:59:53;;;;;;;5.03;3.10;;;11.00;99.90;;;;;;4982330;28;20054;-86
2023/10/31 01:02:18;;;;;;;5.78;3.70;;;11.00;99.90;;;;;;4992569;28;20101;-86
2023/10/31 01:04:44;;;;;;;3.80;2.92;;;11.00;99.90;;;;;;4984100;28;20054;-86
2023/10/31 01:07:12;;;;;;;5.80;3.05;;;11.00;99.90;;;;;;4986931;28;20092;-85
2023/10/31 01:09:38;;;;;;;4.85;3.33;;;11.00;99.90;;;;;;4992156;28;20076;-86
2023/10/31 01:12:04;;;;;;;3.35;2.60;;;11.00;99.90;;;;;;4985744;28;20072;-86
2023/10/31 01:14:30;;;;;;;4.93;3.08;;;11.00;99.90;;;;;;4980643;28;20034;-85
2023/10/31 01:16:56;;;;;;;4.50;3.53;;;11.00;99.90;;;;;;4987003;28;20543;-86
2023/10/31 01:19:21;;;;;;;4.43;3.30;;;11.00;99.90;;;;;;4987210;28;20497;-87
2023/10/31 01:21:47;;;;;;;2.92;2.63;;;11.00;99.90;;;;;;4984133;28;20026;-85
2023/10/31 01:24:12;;;;;;;3.85;2.95;;;11.00;99.90;;;;;;4987526;28;20085;-85
2023/10/31 01:26:38;;;;;;;4.07;2.88;;;11.00;99.90;;;;;;4987964;28;20046;-86
2023/10/31 01:29:03;;;;;;;3.88;2.83;;;11.00;99.90;;;;;;4983464;28;20023;-86
2023/10/31 01:31:29;;;;;;;4.00;3.20;;;11.00;99.90;;;;;;4984427;28;20382;-85
2023/10/31 01:33:54;;;;;;;3.45;2.83;;;11.10;99.90;;;;;;4985973;28;20050;-85
2023/10/31 01:36:26;;;;;;;3.35;3.03;;;11.00;99.90;;;;;;4989051;28;20038;-87
2023/10/31 01:38:51;;;;;;;5.25;2.90;;;11.00;99.90;;;;;;5000249;28;20030;-87
2023/10/31 01:41:17;;;;;;;6.88;3.38;;;11.10;99.90;;;;;;5002022;28;20034;-85
2023/10/31 01:43:43;;;;;;;3.40;3.10;;;11.00;99.90;;;;;;4985313;28;20519;-87
2023/10/31 01:46:08;;;;;;;4.20;2.90;;;11.10;99.90;;;;;;4997657;28;20018;-84
2023/10/31 01:48:34;;;;;;;3.45;3.15;;;11.10;99.90;;;;;;4995424;28;20050;-87
2023/10/31 01:51:03;;;;;;;4.38;3.22;;;11.10;99.90;;;;;;4996597;28;20018;-86
2023/10/31 01:53:31;;;;;;;4.65;3.38;;;11.10;99.90;;;;;;4993073;28;20118;-86
2023/10/31 01:55:59;;;;;;;5.35;3.83;;;11.10;99.90;;;;;;4998039;28;20092;-86
2023/10/31 01:58:31;;;;;;;3.78;3.38;;;11.00;99.90;;;;;;4985217;28;20033;-86
2023/10/31 02:00:57;;;;;;;5.13;3.88;;;11.10;99.90;;;;;;4986596;28;20105;-87
2023/10/31 02:03:22;;;;;;;4.38;3.88;;;11.10;99.90;;;;;;4994031;28;20054;-87
2023/10/31 02:05:48;;;;;;;6.25;4.70;;;11.10;99.90;;;;;;4990642;28;20253;-86
2023/10/31 02:08:14;;;;;;;6.10;3.80;;;11.10;99.90;;;;;;4988000;28;20081;-86
2023/10/31 02:10:40;;;;;;;4.95;4.00;;;11.10;99.90;;;;;;4992349;28;20165;-85
2023/10/31 02:13:16;;;;;;;5.38;4.75;;;11.10;99.90;;;;;;4985353;28;20277;-87
2023/10/31 02:15:42;;;;;;;6.80;5.20;;;11.10;99.90;;;;;;4993515;28;20119;-86
2023/10/31 02:18:08;;;;;;;5.75;4.88;;;11.10;99.90;;;;;;4991437;28;20101;-86
2023/10/31 02:20:35;;;;;;;6.45;5.40;;;11.10;99.90;;;;;;4994408;28;20026;-86
2023/10/31 02:23:01;;;;;;;6.38;5.78;;;11.10;99.90;;;;;;4989403;28;20029;-84
2023/10/31 02:25:27;;;;;;;6.78;5.80;;;11.10;99.90;;;;;;4982574;28;20023;-85
2023/10/31 02:27:52;;;;;;;6.25;5.65;;;11.10;99.90;;;;;;4991492;28;20029;-86
2023/10/31 02:30:18;;;;;;;6.13;5.53;;;11.10;99.90;;;;;;4984739;28;20032;-86
2023/10/31 02:32:44;;;;;;;6.43;5.32;;;11.20;99.90;;;;;;4979685;28;20470;-84
2023/10/31 02:35:10;;;;;;;11.32;6.35;;;11.20;99.90;;;;;;4987022;28;20018;-85
2023/10/31 02:37:36;;;;;;;7.35;5.65;;;11.20;99.90;;;;;;4989713;28;20453;-85
2023/10/31 02:40:02;;;;;;;7.70;5.35;;;11.20;99.90;;;;;;4991810;28;20050;-85
2023/10/31 02:42:27;;;;;;;6.00;4.75;;;11.20;99.90;;;;;;4983422;28;20022;-86
2023/10/31 02:44:53;;;;;;;6.10;5.43;;;11.10;99.90;;;;;;5001466;28;20018;-87
2023/10/31 02:47:19;;;;;;;5.55;5.05;;;11.20;99.90;;;;;;5001409;28;20241;-88
2023/10/31 02:49:45;;;;;;;7.70;5.85;;;11.20;99.90;;;;;;4993782;28;20057;-87
2023/10/31 02:52:11;;;;;;;6.55;5.13;;;11.20;99.90;;;;;;4998083;28;20033;-87
2023/10/31 02:54:36;;;;;;;6.68;5.35;;;11.20;99.90;;;;;;4991960;28;20018;-86
2023/10/31 02:57:02;;;;;;;7.53;5.72;;;11.20;99.90;;;;;;4998047;28;20026;-86
2023/10/31 02:59:28;;;;;;;6.75;5.60;;;11.20;99.90;;;;;;4991521;28;20105;-87
2023/10/31 03:01:55;;;;;;;7.18;5.60;;;11.20;99.90;;;;;;4994061;28;20117;-85
2023/10/31 03:04:21;;;;;;;7.40;5.10;;;11.20;99.90;;;;;;4998818;28;20030;-86
2023/10/31 03:06:47;;;;;;;7.50;6.00;;;11.20;99.90;;;;;;4997638;28;20426;-85
2023/10/31 03:09:12;;;;;;;5.65;4.63;;;11.20;99.90;;;;;;4990785;28;20042;-86
2023/10/31 03:11:38;;;;;;;5.47;4.97;;;11.20;99.90;;;;;;4986031;28;20019;-86
2023/10/31 03:14:03;;;;;;;5.00;4.50;;;11.20;99.90;;;;;;4991474;28;20092;-85
2023/10/31 03:16:29;;;;;;;5.38;4.88;;;11.20;99.90;;;;;;5007773;28;20064;-86
2023/10/31 03:18:54;;;;;;;7.28;5.70;;;11.20;99.90;;;;;;4986886;28;20105;-84
2023/10/31 03:21:20;;;;;;;5.90;5.32;;;11.20;99.90;;;;;;4987184;28;20025;-85
2023/10/31 03:23:48;;;;;;;8.23;5.50;;;11.20;99.90;;;;;;4983925;28;20029;-85
2023/10/31 03:26:14;;;;;;;7.10;6.13;;;11.20;99.90;;;;;;4985478;28;20065;-85
2023/10/31 03:28:40;;;;;;;6.03;5.25;;;11.20;99.90;;;;;;4988955;28;20023;-87
2023/10/31 03:31:06;;;;;;;5.90;5.30;;;11.20;99.90;;;;;;4986202;28;20439;-85
2023/10/31 03:33:31;;;;;;;5.97;5.43;;;11.20;99.90;;;;;;4989943;28;20019;-87
2023/10/31 03:35:57;;;;;;;7.32;5.72;;;11.20;99.90;;;;;;4992540;28;20080;-86
2023/10/31 03:38:22;;;;;;;5.78;5.18;;;11.20;99.90;;;;;;4983931;28;20113;-85
2023/10/31 03:40:48;;;;;;;5.75;5.20;;;11.20;99.90;;;;;;4982938;28;20025;-85
2023/10/31 03:43:14;;;;;;;6.05;5.50;;;11.20;99.90;;;;;;4993760;28;20030;-86
2023/10/31 03:45:40;;;;;;;9.20;5.45;;;11.20;99.90;;;;;;4988797;28;20026;-85
2023/10/31 03:48:06;;;;;;;6.18;5.57;;;11.20;99.90;;;;;;4992979;28;20022;-85
2023/10/31 03:50:32;;;;;;;5.80;4.97;;;11.20;99.90;;;;;;4992117;28;20037;-86
2023/10/31 03:52:57;;;;;;;5.88;5.28;;;11.20;99.90;;;;;;4994823;28;20046;-87
2023/10/31 03:55:23;;;;;;;6.10;4.70;;;11.20;99.90;;;;;;4994269;28;20033;-85
2023/10/31 03:57:48;;;;;;;5.80;4.90;;;11.20;99.90;;;;;;4988979;28;20138;-85
2023/10/31 04:00:14;;;;;;;6.18;4.80;;;11.20;99.90;;;;;;4993351;28;20642;-86
2023/10/31 04:02:41;;;;;;;5.35;4.85;;;11.20;99.90;;;;;;4988988;28;20053;-85
2023/10/31 04:05:07;;;;;;;7.65;6.55;;;11.20;99.90;;;;;;4985454;28;20065;-86
2023/10/31 04:07:32;;;;;;;5.95;5.30;;;11.20;99.90;;;;;;4991627;28;20081;-85
2023/10/31 04:09:58;;;;;;;5.93;5.32;;;11.20;99.90;;;;;;4990129;28;20021;-85
2023/10/31 04:12:23;;;;;;;7.07;5.25;;;11.20;99.90;;;;;;4986752;28;20449;-85
2023/10/31 04:14:49;;;;;;;5.00;4.50;;;11.20;99.90;;;;;;4996973;28;20037;-86
2023/10/31 04:17:14;;;;;;;6.47;5.10;;;11.20;99.90;;;;;;4989122;28;20077;-85
2023/10/31 04:19:40;;;;;;;5.00;4.50;;;11.20;99.90;;;;;;4988546;28;20511;-85
2023/10/31 04:22:05;;;;;;;5.35;4.85;;;11.20;99.90;;;;;;4994126;28;20060;-85
2023/10/31 04:24:31;;;;;;;5.55;4.68;;;11.20;99.90;;;;;;4990844;28;20076;-85
2023/10/31 04:26:57;;;;;;;5.13;4.63;;;11.30;99.90;;;;;;4989963;28;20117;-85
2023/10/31 04:29:23;;;;;;;5.63;5.03;;;11.20;99.90;;;;;;4991261;28;20030;-87
2023/10/31 04:31:48;;;;;;;5.35;4.85;;;11.30;99.90;;;;;;4983220;28;20022;-85
2023/10/31 04:34:14;;;;;;;5.30;4.80;;;11.30;99.90;;;;;;4988666;28;20029;-85
2023/10/31 04:36:40;;;;;;;5.85;5.25;;;11.20;99.90;;;;;;4986052;28;20037;-84
2023/10/31 04:39:06;;;;;;;5.10;4.60;;;11.30;99.90;;;;;;4985661;28;20035;-87
2023/10/31 04:41:31;;;;;;;4.90;4.40;;;11.30;99.90;;;;;;4985450;28;20402;-85
2023/10/31 04:43:57;;;;;;;6.10;5.50;;;11.30;99.90;;;;;;4987604;28;20371;-84
2023/10/31 04:46:24;;;;;;;5.20;4.45;;;11.30;99.90;;;;;;4986115;28;20361;-85
2023/10/31 04:48:50;;;;;;;5.80;4.97;;;11.30;99.90;;;;;;4993222;28;20026;-85
2023/10/31 04:51:15;;;;;;;6.53;5.00;;;11.30;99.90;;;;;;4991219;28;20508;-85
2023/10/31 04:53:41;;;;;;;7.38;5.75;;;11.30;99.90;;;;;;4986889;28;20394;-85
2023/10/31 04:56:13;;;;;;;6.40;4.93;;;11.30;99.90;;;;;;4988506;28;20045;-85
2023/10/31 04:58:39;;;;;;;6.47;5.15;;;11.30;99.90;;;;;;4999293;28;20010;-86
2023/10/31 05:01:16;;;;;;;6.07;5.00;;;11.30;99.90;;;;;;5004491;28;20030;-87
2023/10/31 05:03:42;;;;;;;6.65;4.90;;;11.30;99.90;;;;;;5006399;28;20081;-86
2023/10/31 05:06:08;;;;;;;6.20;4.72;;;11.40;99.90;;;;;;4995492;28;20034;-86
2023/10/31 05:08:36;;;;;;;5.30;4.72;;;11.40;99.90;;;;;;4992385;28;20033;-87
2023/10/31 05:11:02;;;;;;;4.97;4.40;;;11.40;99.90;;;;;;4999416;28;20022;-86
2023/10/31 05:13:28;;;;;;;5.07;4.57;;;11.40;99.90;;;;;;4988139;28;20394;-84
2023/10/31 05:15:54;;;;;;;5.30;4.75;;;11.40;99.90;;;;;;4990736;28;20038;-84
2023/10/31 05:18:19;;;;;;;5.85;5.20;;;11.40;99.90;;;;;;4991238;28;20034;-85
2023/10/31 05:20:45;;;;;;;6.10;5.43;;;11.40;99.90;;;;;;4985219;28;20014;-85
2023/10/31 05:23:11;;;;;;;6.97;5.38;;;11.40;99.90;;;;;;4992546;28;20133;-85
2023/10/31 05:25:37;;;;;;;5.57;4.32;;;11.40;99.90;;;;;;4990039;28;20033;-86
2023/10/31 05:28:03;;;;;;;5.13;4.38;;;11.40;99.90;;;;;;4989757;28;20029;-85
2023/10/31 05:30:29;;;;;;;5.35;4.82;;;11.50;99.90;;;;;;4987888;28;20015;-85
2023/10/31 05:32:55;;;;;;;5.10;4.60;;;11.40;99.90;;;;;;4987681;28;20019;-86
2023/10/31 05:35:21;;;;;;;6.95;5.38;;;11.50;99.90;;;;;;4992077;28;20054;-85
2023/10/31 05:37:46;;;;;;;6.40;5.20;;;11.50;99.90;;;;;;5005625;28;20030;-85
2023/10/31 05:40:13;;;;;;;5.93;5.22;;;11.50;99.90;;;;;;5003019;28;20030;-86
2023/10/31 05:42:39;;;;;;;7.30;5.30;;;11.50;99.90;;;;;;4993702;28;20529;-86
2023/10/31 05:45:05;;;;;;;7.43;5.88;;;11.50;99.90;;;;;;4994582;28;20400;-86
2023/10/31 05:47:31;;;;;;;7.00;6.30;;;11.50;99.90;;;;;;4986887;28;20077;-85
2023/10/31 05:49:57;;;;;;;5.82;4.82;;;11.50;99.90;;;;;;4985996;28;20047;-85
2023/10/31 05:52:22;;;;;;;10.48;6.28;;;11.60;99.90;;;;;;4991429;28;20486;-84
2023/10/31 05:54:48;;;;;;;8.00;5.80;;;11.50;99.90;;;;;;4986268;28;20083;-84
2023/10/31 05:57:14;;;;;;;7.13;5.00;;;11.60;99.90;;;;;;4992664;28;20031;-85
2023/10/31 05:59:39;;;;;;;7.65;5.13;;;11.50;99.90;;;;;;4988242;28;20049;-86
2023/10/31 06:02:05;;;;;;;8.18;6.45;;;11.60;99.90;;;;;;4986757;28;20368;-86
2023/10/31 06:04:30;;;;;;;6.18;5.35;;;11.60;99.90;;;;;;4988519;28;20022;-85
2023/10/31 06:06:56;;;;;;;7.57;5.63;;;11.50;99.90;;;;;;4992896;28;20047;-87
2023/10/31 06:09:21;;;;;;;6.95;5.97;;;11.50;99.90;;;;;;4991310;28;20105;-85
2023/10/31 06:11:47;;;;;;;7.13;5.72;;;11.60;99.90;;;;;;4987846;28;20073;-86
2023/10/31 06:14:13;;;;;;;7.88;5.70;;;11.60;99.90;;;;;;4983403;28;20038;-85
2023/10/31 06:16:45;;;;;;;7.93;6.68;;;11.60;99.90;;;;;;4985343;28;20035;-85
2023/10/31 06:19:11;;;;;;;7.65;6.13;;;11.60;99.90;;;;;;4986604;28;20117;-85
2023/10/31 06:21:37;;;;;;;8.43;5.93;;;11.60;99.90;;;;;;4988648;28;20517;-84
2023/10/31 06:24:03;;;;;;;5.38;4.82;;;11.60;99.90;;;;;;4999453;28;20021;-84
2023/10/31 06:26:29;;;;;;;6.93;5.72;;;11.60;99.90;;;;;;4990935;28;20034;-85
2023/10/31 06:28:54;;;;;;;9.68;6.68;;;11.60;99.90;;;;;;4988290;28;20030;-86
2023/10/31 06:31:20;;;;;;;8.85;7.38;;;11.50;99.90;;;;;;4989844;28;20037;-85
2023/10/31 06:33:46;;;;;;;7.45;5.85;;;11.60;99.90;;;;;;4988384;28;20033;-85
2023/10/31 06:36:11;;;;;;;6.20;5.28;;;11.60;99.90;;;;;;4987672;28;20310;-85
2023/10/31 06:38:37;;;;;;;6.68;5.38;;;11.60;99.90;;;;;;4990957;28;20018;-85
2023/10/31 06:41:02;;;;;;;7.38;5.40;;;11.60;99.90;;;;;;4999731;28;20062;-85
2023/10/31 06:43:28;;;;;;;8.18;6.40;;;11.60;99.90;;;;;;4995044;28;20022;-85
2023/10/31 06:45:55;;;;;;;8.13;6.40;;;11.60;99.90;;;;;;4988082;28;20451;-86
2023/10/31 06:48:20;;;;;;;7.60;5.68;;;11.60;99.90;;;;;;4987650;28;20664;-86
2023/10/31 06:50:46;;;;;;;7.35;5.75;;;11.60;99.90;;;;;;4988006;28;20081;-86
2023/10/31 06:53:11;;;;;;;6.88;5.47;;;11.60;99.90;;;;;;4993411;28;20134;-86
2023/10/31 06:55:37;;;;;;;9.50;6.68;;;11.60;99.90;;;;;;4999519;28;20049;-85
2023/10/31 06:58:03;;;;;;;10.75;6.50;;;11.60;99.90;;;;;;4987015;28;21489;-85
2023/10/31 07:00:29;;;;;;;7.07;6.07;;;11.60;99.90;;;;;;4991464;28;20022;-85
2023/10/31 07:02:54;;;;;;;8.50;6.10;;;11.60;99.90;;;;;;4989097;28;20038;-85
2023/10/31 07:05:22;;;;;;;7.93;5.80;;;11.60;99.90;;;;;;4990370;28;20026;-85
2023/10/31 07:07:48;;;;;;;7.60;5.60;;;11.60;99.90;;;;;;4995199;28;20083;-84
2023/10/31 07:10:13;;;;;;;6.43;5.25;;;11.60;99.90;;;;;;4992021;28;20030;-86
2023/10/31 07:12:39;;;;;;;9.05;6.03;;;11.60;99.90;;;;;;4990683;28;20449;-87
2023/10/31 07:15:05;;;;;;;8.80;6.05;;;11.60;99.90;;;;;;4995514;28;20034;-86
2023/10/31 07:17:31;;;;;;;7.95;5.70;;;11.60;99.90;;;;;;4990231;28;20114;-85
2023/10/31 07:19:56;;;;;;;8.88;6.40;;;11.60;99.90;;;;;;4998182;28;20061;-84
2023/10/31 07:22:25;;;;;;;11.88;6.65;;;11.70;99.90;;;;;;4988061;28;20217;-84
2023/10/31 07:24:51;;;;;;;7.57;5.65;;;11.70;99.90;;;;;;4989959;28;20014;-84
2023/10/31 07:27:18;;;;;;;8.38;6.75;;;11.60;99.90;;;;;;4993899;28;20038;-85
2023/10/31 07:29:44;;;;;;;8.75;6.10;;;11.70;99.90;;;;;;4987997;28;20022;-85
2023/10/31 07:32:09;;;;;;;7.85;6.18;;;11.70;99.90;;;;;;4992567;28;20085;-85
2023/10/31 07:34:35;;;;;;;7.80;6.38;;;11.70;99.90;;;;;;4994826;28;20015;-86
2023/10/31 07:37:01;;;;;;;8.18;6.63;;;11.70;99.90;;;;;;4992055;28;20073;-84
2023/10/31 07:39:26;;;;;;;7.50;5.88;;;11.70;99.90;;;;;;4995339;28;20023;-86
2023/10/31 07:41:52;;;;;;;8.05;6.38;;;11.70;99.90;;;;;;4995201;28;20096;-85
2023/10/31 07:44:17;;;;;;;7.82;6.18;;;11.70;99.90;;;;;;4989527;28;20748;-85
2023/10/31 07:46:43;;;;;;;7.00;5.43;;;11.70;99.90;;;;;;4994301;28;20034;-85
2023/10/31 07:49:09;;;;;;;7.88;6.10;;;11.70;99.90;;;;;;4994208;28;20454;-84
2023/10/31 07:51:34;;;;;;;8.65;6.00;;;11.80;99.90;;;;;;4996439;28;20034;-85
2023/10/31 07:54:00;;;;;;;5.25;4.55;;;11.80;99.90;;;;;;4992618;28;20041;-85
2023/10/31 07:56:26;;;;;;;6.40;4.63;;;11.80;99.90;;;;;;4987624;28;20072;-86
2023/10/31 07:58:52;;;;;;;4.53;3.53;;;11.80;99.90;;;;;;4987202;28;20475;-85
2023/10/31 08:01:18;;;;;;;4.63;3.55;;;11.80;99.90;;;;;;4997319;28;20099;-85
2023/10/31 08:03:45;;;;;;;4.90;3.63;;;11.80;99.90;;;;;;4998649;28;20030;-85
2023/10/31 08:06:11;;;;;;;3.92;3.25;;;11.80;99.90;;;;;;4990979;28;20118;-85
2023/10/31 08:08:36;;;;;;;5.75;4.40;;;11.80;99.90;;;;;;4994018;28;20215;-87
2023/10/31 08:11:03;;;;;;;5.30;4.47;;;11.80;99.90;;;;;;4988419;28;20038;-85
2023/10/31 08:13:29;;;;;;;6.28;5.40;;;11.80;99.90;;;;;;4992817;28;20027;-85
2023/10/31 08:15:55;;;;;;;8.82;6.55;;;11.80;99.90;;;;;;4989904;28;20125;-83
2023/10/31 08:18:23;;;;;;;7.03;6.20;;;11.80;99.90;;;;;;4987676;28;20106;-84
2023/10/31 08:20:50;;;;;;;7.50;5.55;;;11.80;99.90;;;;;;4992239;28;20027;-83
2023/10/31 08:23:16;;;;;;;7.20;5.50;;;11.70;99.90;;;;;;4993823;28;20021;-84
2023/10/31 08:25:42;;;;;;;5.20;4.70;;;11.60;99.90;;;;;;4994630;28;20026;-85
2023/10/31 08:28:07;;;;;;;7.97;3.78;;;11.60;99.90;;;;;;4995500;28;20014;-84
2023/10/31 08:30:33;;;;;;;4.55;3.25;;;11.60;99.90;;;;;;4993429;28;20493;-84
2023/10/31 08:32:59;;;;;;;2.20;2.00;;;11.50;99.90;;;;;;4992250;28;20014;-85
2023/10/31 08:35:24;;;;;;;2.42;2.22;;;11.50;99.90;;;;;;4993454;28;20107;-84
2023/10/31 08:37:50;;;;;;;1.80;1.65;;;11.50;99.90;;;;;;4999257;28;20052;-83
2023/10/31 08:40:16;;;;;;;2.30;2.10;;;11.50;99.90;;;;;;4995690;28;20019;-84
2023/10/31 08:42:41;;;;;;;2.28;2.00;;;11.40;99.90;;;;;;4995925;28;20509;-84
2023/10/31 08:45:08;;;;;;;3.17;2.65;;;11.40;99.90;;;;;;4997033;28;20019;-84
2023/10/31 08:47:33;;;;;;;3.88;2.80;;;11.30;99.90;;;;;;4998553;28;20022;-84
2023/10/31 08:49:59;;;;;;;5.05;3.20;;;11.30;99.90;;;;;;4992168;28;20021;-84
2023/10/31 08:52:25;;;;;;;3.20;2.90;;;11.30;99.90;;;;;;4992706;28;20037;-84
2023/10/31 08:54:50;;;;;;;4.45;3.45;;;11.30;99.90;;;;;;4991536;28;20093;-83
2023/10/31 08:57:18;;;;;;;4.57;3.60;;;11.20;99.90;;;;;;4991633;28;20027;-84
2023/10/31 08:59:44;;;;;;;3.85;3.53;;;11.20;99.90;;;;;;4993893;28;20398;-85
2023/10/31 09:02:09;;;;;;;3.20;2.90;;;11.20;99.90;;;;;;4992822;28;20014;-84
2023/10/31 09:04:35;;;;;;;2.67;2.47;;;11.20;99.90;;;;;;4994581;28;20026;-84
2023/10/31 09:07:01;;;;;;;5.53;2.85;;;11.30;99.90;;;;;;4994850;28;20461;-83
2023/10/31 09:09:26;;;;;;;3.25;2.92;;;11.20;99.90;;;;;;5003496;28;20696;-84
2023/10/31 09:12:02;;;;;;;4.05;3.55;;;11.20;99.90;;;;;;4989338;28;20025;-84
2023/10/31 09:14:49;;;;;;;;;;;;;;;;;;;;;
2023/10/31 09:17:20;;;;;;;2.08;1.98;;;11.30;99.90;;;;;;4991876;28;20570;-83
2023/10/31 09:20:22;;;;;;;2.50;1.90;;;11.30;99.90;;;;;;4990984;28;20525;-84
2023/10/31 09:22:47;;;;;;;1.83;1.45;;;11.30;99.90;;;;;;4992181;28;20054;-84
2023/10/31 09:25:13;;;;;;;1.52;1.42;;;11.30;99.90;;;;;;5000682;28;20400;-84
2023/10/31 09:27:41;;;;;;;1.40;1.30;;;11.30;99.90;;;;;;4988156;28;20053;-85
2023/10/31 09:30:07;;;;;;;1.58;1.48;;;11.30;99.90;;;;;;4987703;28;20072;-82
2023/10/31 09:32:33;;;;;;;1.88;1.23;;;11.30;99.90;;;;;;4990760;28;20034;-84
2023/10/31 09:34:58;;;;;;;1.20;1.10;;;11.30;99.90;;;;;;4993585;28;20018;-82
2023/10/31 09:37:25;;;;;;;0.60;0.60;;;11.30;99.90;;;;;;4987865;28;20061;-82
2023/10/31 09:39:51;;;;;;;0.57;0.57;;;11.30;99.90;;;;;;4989124;28;20120;-82
2023/10/31 09:42:16;;;;;;;1.20;0.50;;;11.30;99.90;;;;;;4988444;28;20090;-82
2023/10/31 09:44:42;;;;;;;0.47;0.45;;;11.20;99.90;;;;;;4992072;28;20268;-83
2023/10/31 09:47:07;;;;;;;0.77;0.40;;;11.20;99.90;;;;;;4989900;28;20052;-83
2023/10/31 09:49:34;;;;;;;0.50;0.20;;;11.10;99.90;;;;;;4990542;28;20474;-83
2023/10/31 09:52:00;;;;;;;1.13;0.28;;;11.00;99.90;;;;;;4990003;28;20073;-83
2023/10/31 09:54:26;;;;;;;0.10;0.10;;;10.90;99.90;;;;;;4990174;28;20022;-82
2023/10/31 09:56:52;;;;;;;0.10;0.10;;;10.80;99.90;;;;;;4988818;28;20046;-81
2023/10/31 09:59:18;;;;;;;0.20;0.00;;;10.60;99.90;;;;;;4989023;28;20057;-81
2023/10/31 10:01:44;;;;;;;0.32;0.25;;;10.50;99.90;;;;;;4988119;28;20022;-83
2023/10/31 10:04:11;;;;;;;0.50;0.20;;;10.40;99.90;;;;;;4993443;28;20022;-82
2023/10/31 10:06:49;;;;;;;0.30;0.17;;;10.30;99.90;;;;;;4991014;28;20492;-83
2023/10/31 10:09:15;;;;;;;2.38;0.22;;;10.20;99.90;;;;;;4992287;28;20033;-81
2023/10/31 10:11:40;;;;;;;0.25;0.20;;;10.10;99.90;;;;;;4989158;28;20018;-83
2023/10/31 10:14:09;;;;;;;0.30;0.10;;;10.00;99.90;;;;;;4989969;28;20546;-83
2023/10/31 10:16:34;;;;;;;0.20;0.15;;;10.00;99.90;;;;;;4986781;28;20050;-82
2023/10/31 10:19:19;;;;;;;1.23;0.20;;;9.90;99.90;;;;;;4987382;28;20022;-85
2023/10/31 10:21:56;;;;;;;0.13;0.10;;;9.90;99.90;;;;;;4985505;28;20034;-81
2023/10/31 10:24:24;;;;;;;1.00;0.60;;;9.80;99.90;;;;;;4989959;28;20109;-83
2023/10/31 10:26:50;;;;;;;2.67;0.10;;;9.80;99.90;;;;;;4991559;28;20022;-84
2023/10/31 10:29:17;;;;;;;1.38;0.10;;;9.80;99.90;;;;;;4989555;28;20026;-84
2023/10/31 10:31:44;;;;;;;0.50;0.20;;;9.70;99.90;;;;;;4988771;28;20507;-81
2023/10/31 10:34:10;;;;;;;0.20;0.20;;;9.70;99.90;;;;;;4987644;28;20026;-81
2023/10/31 10:36:36;;;;;;;0.20;0.10;;;9.70;99.90;;;;;;4989341;28;20103;-83
2023/10/31 10:39:03;;;;;;;0.10;0.10;;;9.70;99.90;;;;;;4992485;28;20034;-83
2023/10/31 10:41:29;;;;;;;0.30;0.22;;;9.70;99.90;;;;;;4991372;28;20080;-83
2023/10/31 10:44:07;;;;;;;0.40;0.30;;;9.80;99.90;;;;;;4991130;28;20105;-84
2023/10/31 10:46:35;;;;;;;0.40;0.22;;;9.90;99.90;;;;;;4985433;28;20037;-84
2023/10/31 10:49:04;;;;;;;0.93;0.32;;;9.90;99.90;;;;;;4993510;28;20481;-84
2023/10/31 10:51:35;;;;;;;1.58;0.30;;;10.00;99.90;;;;;;4995390;28;20026;-85
2023/10/31 10:54:14;;;;;;;0.65;0.43;;;10.00;99.90;;;;;;5001599;28;20049;-86
2023/10/31 10:56:56;;;;;;;0.32;0.30;;;10.00;99.90;;;;;;4996739;28;20031;-85
2023/10/31 10:59:52;;;;;;;1.80;0.38;;;10.00;99.90;;;;;;4989038;28;20018;-86
2023/10/31 11:02:18;;;;;;;0.20;0.20;;;9.90;99.90;;;;;;4987952;28;20157;-85
2023/10/31 11:04:44;;;;;;;0.45;0.20;;;9.90;99.90;;;;;;4988417;28;20019;-86
2023/10/31 11:07:11;;;;;;;0.20;0.20;;;9.80;99.90;;;;;;4995196;28;20026;-87
2023/10/31 11:09:38;;;;;;;1.15;0.38;;;9.70;99.90;;;;;;5000371;28;20018;-84
2023/10/31 11:12:04;;;;;;;0.85;0.47;;;9.60;99.90;;;;;;4994940;28;20409;-85
2023/10/31 11:14:32;;;;;;;0.25;0.25;;;9.60;99.90;;;;;;4988902;28;20072;-85
2023/10/31 11:17:02;;;;;;;0.88;0.30;;;9.60;99.90;;;;;;4996705;28;20490;-84
2023/10/31 11:19:29;;;;;;;0.55;0.43;;;9.60;99.90;;;;;;4993493;28;20033;-83
2023/10/31 11:21:59;;;;;;;0.20;0.20;;;9.70;99.90;;;;;;4997188;28;20025;-84
2023/10/31 11:24:32;;;;;;;0.32;0.25;;;9.70;99.90;;;;;;4991949;28;20022;-84
2023/10/31 11:27:02;;;;;;;0.57;0.20;;;9.70;99.90;;;;;;4996330;28;20022;-84
2023/10/31 11:29:28;;;;;;;1.17;0.60;;;9.70;99.90;;;;;;4991604;28;20052;-84
2023/10/31 11:31:57;;;;;;;0.47;0.45;;;9.60;99.90;;;;;;4999849;28;20498;-84
2023/10/31 11:34:25;;;;;;;0.75;0.35;;;9.60;99.90;;;;;;4995747;28;20077;-83
2023/10/31 11:36:52;;;;;;;0.30;0.30;;;9.70;99.90;;;;;;4996018;28;20049;-84
2023/10/31 11:39:28;;;;;;;0.20;0.17;;;9.70;99.90;;;;;;4993859;28;20023;-84
2023/10/31 11:41:56;;;;;;;1.30;0.52;;;9.70;99.90;;;;;;5004756;28;20038;-84
2023/10/31 11:44:25;;;;;;;0.73;0.38;;;9.70;99.90;;;;;;5011421;28;20053;-84
2023/10/31 11:46:52;;;;;;;1.00;0.60;;;9.70;99.90;;;;;;5006734;28;20203;-84
2023/10/31 11:49:37;;;;;;;0.35;0.35;;;9.70;99.90;;;;;;4998616;28;20039;-83
2023/10/31 11:52:02;;;;;;;0.30;0.30;;;9.80;99.90;;;;;;4997205;28;20033;-83
2023/10/31 11:54:28;;;;;;;0.75;0.50;;;9.80;99.90;;;;;;5010275;28;20094;-84
2023/10/31 11:56:54;;;;;;;0.40;0.38;;;9.80;99.90;;;;;;5008152;28;20026;-84
2023/10/31 11:59:19;;;;;;;0.60;0.40;;;9.80;99.90;;;;;;4998396;28;20157;-84
2023/10/31 12:01:48;;;;;;;0.57;0.40;;;9.80;99.90;;;;;;4997629;28;20045;-85
2023/10/31 12:04:23;;;;;;;0.47;0.43;;;9.80;99.90;;;;;;4995104;28;20039;-84
2023/10/31 12:07:00;;;;;;;0.30;0.30;;;9.90;99.90;;;;;;4998714;28;20221;-82
2023/10/31 12:09:26;;;;;;;1.15;0.60;;;9.90;99.90;;;;;;4996246;28;20066;-83
2023/10/31 12:11:51;;;;;;;2.17;0.77;;;10.00;99.90;;;;;;4994444;28;20060;-83
2023/10/31 12:14:20;;;;;;;0.90;0.90;;;10.00;99.90;;;;;;4990561;28;20080;-83
2023/10/31 12:16:46;;;;;;;0.75;0.73;;;10.00;99.90;;;;;;4990270;28;20027;-84
2023/10/31 12:19:12;;;;;;;1.10;1.00;;;10.10;99.90;;;;;;4992995;28;20037;-83
2023/10/31 12:21:49;;;;;;;0.95;0.88;;;10.10;99.90;;;;;;4991229;28;20029;-82
2023/10/31 12:24:17;;;;;;;1.73;0.93;;;10.10;99.90;;;;;;4988000;28;20034;-83
2023/10/31 12:26:44;;;;;;;1.55;1.40;;;10.20;99.90;;;;;;4997959;28;20439;-83
2023/10/31 12:29:11;;;;;;;1.77;1.38;;;10.20;99.90;;;;;;4989578;28;20505;-83
2023/10/31 12:31:46;;;;;;;1.80;1.30;;;10.30;99.90;;;;;;4996462;28;20478;-83
2023/10/31 12:34:11;;;;;;;1.53;1.43;;;10.30;99.90;;;;;;4989209;28;20062;-83
2023/10/31 12:36:38;;;;;;;2.13;1.55;;;10.40;99.90;;;;;;4987418;28;20820;-84
2023/10/31 12:39:13;;;;;;;2.03;1.73;;;10.40;99.90;;;;;;4988954;28;20142;-82
2023/10/31 12:41:40;;;;;;;2.08;1.88;;;10.30;99.90;;;;;;4987416;28;20144;-83
2023/10/31 12:44:10;;;;;;;2.03;1.83;;;10.30;99.90;;;;;;4991543;28;20612;-83
2023/10/31 12:46:38;;;;;;;3.28;2.20;;;10.30;99.90;;;;;;4989314;28;20053;-83